Terminal Aerodrome Forecast
Issued by NWS Blacksburg, VA

Current Version | Previous Version | Graphics & Text | Print | Product List | Glossary On
Versions: 1 2 3 4 5 6 7 8 9 10 11 12 13 14 15 16 17 18 19 20 21 22 23 24 25 26 27 28 29 30 31 32 33 34 35 36 37 38 39 40
000
FTUS41 KRNK 240526
TAFBLF
TAF
KBLF 240526Z 2406/2506 VRB04KT P6SM BKN050 OVC080
     FM240800 22005KT P6SM SCT025 OVC060
     FM241500 27006KT P6SM BKN025 OVC100
     FM241800 25005KT P6SM BKN045
     FM250100 12005KT 6SM -RA BKN015 OVC040=

USA.gov is the U.S. government's official web portal to all federal, state and local government web resources and services.